sensor_id;sensor_type;location;lat;lon;timestamp;pressure;altitude;pressure_sealevel;temperature;humidity
79037;BME280;68434;59.896;30.474;2023-04-01T00:01:58;100552.44;;;1.33;74.32
79037;BME280;68434;59.896;30.474;2023-04-01T00:04:25;100557.66;;;1.35;74.88
79037;BME280;68434;59.896;30.474;2023-04-01T00:06:53;100559.78;;;1.30;74.83
79037;BME280;68434;59.896;30.474;2023-04-01T00:09:20;100563.03;;;1.21;75.66
79037;BME280;68434;59.896;30.474;2023-04-01T00:11:48;100558.59;;;1.34;75.14
79037;BME280;68434;59.896;30.474;2023-04-01T00:14:16;100555.84;;;1.35;74.94
79037;BME280;68434;59.896;30.474;2023-04-01T00:16:44;100556.75;;;1.22;75.27
79037;BME280;68434;59.896;30.474;2023-04-01T00:19:12;100551.63;;;1.19;75.21
79037;BME280;68434;59.896;30.474;2023-04-01T00:21:40;100548.66;;;1.23;75.50
79037;BME280;68434;59.896;30.474;2023-04-01T00:24:08;100558.63;;;1.07;75.18
79037;BME280;68434;59.896;30.474;2023-04-01T00:26:36;100549.72;;;1.21;75.91
79037;BME280;68434;59.896;30.474;2023-04-01T00:29:03;100547.25;;;1.18;75.49
79037;BME280;68434;59.896;30.474;2023-04-01T00:31:31;100545.78;;;1.26;75.49
79037;BME280;68434;59.896;30.474;2023-04-01T00:34:00;100546.09;;;1.22;75.55
79037;BME280;68434;59.896;30.474;2023-04-01T00:36:28;100552.66;;;1.30;75.01
79037;BME280;68434;59.896;30.474;2023-04-01T00:38:57;100553.16;;;1.23;75.74
79037;BME280;68434;59.896;30.474;2023-04-01T00:41:24;100561.09;;;1.10;75.85
79037;BME280;68434;59.896;30.474;2023-04-01T00:43:52;100551.09;;;1.14;76.12
79037;BME280;68434;59.896;30.474;2023-04-01T00:46:19;100545.47;;;1.18;76.20
79037;BME280;68434;59.896;30.474;2023-04-01T00:48:51;100548.53;;;1.12;75.76
79037;BME280;68434;59.896;30.474;2023-04-01T00:51:23;100549.06;;;1.17;75.88
79037;BME280;68434;59.896;30.474;2023-04-01T00:53:54;100557.34;;;1.13;76.07
79037;BME280;68434;59.896;30.474;2023-04-01T00:56:22;100550.63;;;1.07;76.54
79037;BME280;68434;59.896;30.474;2023-04-01T00:58:57;100553.00;;;1.12;76.17
79037;BME280;68434;59.896;30.474;2023-04-01T01:01:28;100539.00;;;1.08;76.20
79037;BME280;68434;59.896;30.474;2023-04-01T01:03:57;100540.78;;;0.95;76.29
79037;BME280;68434;59.896;30.474;2023-04-01T01:06:37;100542.53;;;1.09;76.19
79037;BME280;68434;59.896;30.474;2023-04-01T01:09:28;100542.91;;;1.17;75.42
79037;BME280;68434;59.896;30.474;2023-04-01T01:12:03;100541.56;;;1.10;75.74
79037;BME280;68434;59.896;30.474;2023-04-01T01:14:39;100538.69;;;1.00;75.53
79037;BME280;68434;59.896;30.474;2023-04-01T01:17:13;100542.06;;;1.02;75.60
79037;BME280;68434;59.896;30.474;2023-04-01T01:19:54;100535.31;;;1.11;75.56
79037;BME280;68434;59.896;30.474;2023-04-01T01:22:35;100544.03;;;1.13;75.19
79037;BME280;68434;59.896;30.474;2023-04-01T01:25:14;100541.94;;;0.91;75.31
79037;BME280;68434;59.896;30.474;2023-04-01T01:27:48;100549.22;;;1.02;76.13
79037;BME280;68434;59.896;30.474;2023-04-01T01:30:34;100540.94;;;1.06;76.11
79037;BME280;68434;59.896;30.474;2023-04-01T01:33:42;100539.00;;;1.08;76.17
79037;BME280;68434;59.896;30.474;2023-04-01T01:36:18;100538.28;;;1.06;75.35
79037;BME280;68434;59.896;30.474;2023-04-01T01:38:48;100550.56;;;0.95;75.95
79037;BME280;68434;59.896;30.474;2023-04-01T01:41:17;100546.56;;;1.02;75.28
79037;BME280;68434;59.896;30.474;2023-04-01T01:43:48;100542.66;;;0.93;75.46
79037;BME280;68434;59.896;30.474;2023-04-01T01:46:20;100553.13;;;0.96;76.12
79037;BME280;68434;59.896;30.474;2023-04-01T01:48:50;100547.69;;;0.98;76.22
79037;BME280;68434;59.896;30.474;2023-04-01T01:51:21;100551.53;;;0.94;75.55
79037;BME280;68434;59.896;30.474;2023-04-01T01:53:50;100540.69;;;0.83;75.99
79037;BME280;68434;59.896;30.474;2023-04-01T01:56:23;100542.13;;;0.88;76.22
79037;BME280;68434;59.896;30.474;2023-04-01T01:58:56;100550.41;;;0.84;76.20
79037;BME280;68434;59.896;30.474;2023-04-01T02:01:28;100549.34;;;0.86;76.92
79037;BME280;68434;59.896;30.474;2023-04-01T02:04:02;100552.38;;;0.94;76.54
79037;BME280;68434;59.896;30.474;2023-04-01T02:06:34;100542.78;;;0.92;76.26
79037;BME280;68434;59.896;30.474;2023-04-01T02:09:06;100550.03;;;0.90;76.13
79037;BME280;68434;59.896;30.474;2023-04-01T02:11:40;100544.91;;;0.87;76.85
79037;BME280;68434;59.896;30.474;2023-04-01T02:14:11;100538.59;;;0.88;76.42
79037;BME280;68434;59.896;30.474;2023-04-01T02:16:44;100543.66;;;0.78;76.45
79037;BME280;68434;59.896;30.474;2023-04-01T02:19:13;100540.75;;;0.69;76.37
79037;BME280;68434;59.896;30.474;2023-04-01T02:21:49;100547.78;;;0.70;77.31
79037;BME280;68434;59.896;30.474;2023-04-01T02:24:19;100550.25;;;0.73;76.33
79037;BME280;68434;59.896;30.474;2023-04-01T02:26:50;100544.44;;;0.80;76.68
79037;BME280;68434;59.896;30.474;2023-04-01T02:29:21;100539.41;;;0.76;76.24
79037;BME280;68434;59.896;30.474;2023-04-01T02:31:52;100546.13;;;0.81;76.63
79037;BME280;68434;59.896;30.474;2023-04-01T02:34:20;100544.44;;;0.66;76.39
79037;BME280;68434;59.896;30.474;2023-04-01T02:36:51;100545.22;;;0.68;76.43
79037;BME280;68434;59.896;30.474;2023-04-01T02:39:19;100541.19;;;0.75;76.40
79037;BME280;68434;59.896;30.474;2023-04-01T02:41:47;100541.09;;;0.77;76.07
79037;BME280;68434;59.896;30.474;2023-04-01T02:44:15;100547.56;;;0.73;76.62
79037;BME280;68434;59.896;30.474;2023-04-01T02:46:43;100550.16;;;0.60;76.03
79037;BME280;68434;59.896;30.474;2023-04-01T02:49:11;100556.06;;;0.65;76.64
79037;BME280;68434;59.896;30.474;2023-04-01T02:51:39;100544.53;;;0.79;76.31
79037;BME280;68434;59.896;30.474;2023-04-01T02:54:08;100551.84;;;0.75;76.34
79037;BME280;68434;59.896;30.474;2023-04-01T02:56:38;100548.50;;;0.86;76.34
79037;BME280;68434;59.896;30.474;2023-04-01T02:59:06;100562.16;;;0.67;76.34
79037;BME280;68434;59.896;30.474;2023-04-01T03:01:33;100554.81;;;0.71;76.40
79037;BME280;68434;59.896;30.474;2023-04-01T03:04:01;100553.41;;;0.65;76.72
79037;BME280;68434;59.896;30.474;2023-04-01T03:06:28;100552.13;;;0.71;77.28
79037;BME280;68434;59.896;30.474;2023-04-01T03:08:56;100552.88;;;0.87;76.37
79037;BME280;68434;59.896;30.474;2023-04-01T03:11:25;100555.56;;;0.73;76.70
79037;BME280;68434;59.896;30.474;2023-04-01T03:13:52;100555.38;;;0.76;76.33
79037;BME280;68434;59.896;30.474;2023-04-01T03:16:20;100548.44;;;0.73;76.02
79037;BME280;68434;59.896;30.474;2023-04-01T03:18:50;100550.16;;;0.60;76.34
79037;BME280;68434;59.896;30.474;2023-04-01T03:21:19;100559.47;;;0.67;76.38
79037;BME280;68434;59.896;30.474;2023-04-01T03:23:47;100551.09;;;0.73;76.42
79037;BME280;68434;59.896;30.474;2023-04-01T03:26:16;100563.75;;;0.70;76.65
79037;BME280;68434;59.896;30.474;2023-04-01T03:28:45;100559.38;;;0.69;76.14
79037;BME280;68434;59.896;30.474;2023-04-01T03:31:13;100553.56;;;0.76;76.52
79037;BME280;68434;59.896;30.474;2023-04-01T03:33:48;100556.97;;;0.78;76.64
79037;BME280;68434;59.896;30.474;2023-04-01T03:36:16;100565.84;;;0.65;76.33
79037;BME280;68434;59.896;30.474;2023-04-01T03:38:44;100570.22;;;0.66;76.67
79037;BME280;68434;59.896;30.474;2023-04-01T03:41:17;100557.06;;;0.77;76.34
79037;BME280;68434;59.896;30.474;2023-04-01T03:43:47;100569.75;;;0.73;76.24
79037;BME280;68434;59.896;30.474;2023-04-01T03:46:17;100568.88;;;0.73;76.03
79037;BME280;68434;59.896;30.474;2023-04-01T03:48:45;100561.06;;;0.84;76.16
79037;BME280;68434;59.896;30.474;2023-04-01T03:51:12;100569.91;;;0.84;75.75
79037;BME280;68434;59.896;30.474;2023-04-01T03:53:40;100572.84;;;0.80;75.70
79037;BME280;68434;59.896;30.474;2023-04-01T03:56:09;100566.41;;;0.84;75.72
79037;BME280;68434;59.896;30.474;2023-04-01T03:58:37;100581.31;;;0.72;76.11
79037;BME280;68434;59.896;30.474;2023-04-01T04:01:18;100585.22;;;0.81;75.81
79037;BME280;68434;59.896;30.474;2023-04-01T04:03:48;100580.84;;;0.80;75.93
79037;BME280;68434;59.896;30.474;2023-04-01T04:06:17;100584.47;;;0.79;75.87
79037;BME280;68434;59.896;30.474;2023-04-01T04:08:46;100581.63;;;0.68;76.28
79037;BME280;68434;59.896;30.474;2023-04-01T04:11:16;100584.19;;;0.69;75.65
79037;BME280;68434;59.896;30.474;2023-04-01T04:13:48;100579.41;;;0.88;75.70
79037;BME280;68434;59.896;30.474;2023-04-01T04:16:18;100586.06;;;0.81;75.81
79037;BME280;68434;59.896;30.474;2023-04-01T04:18:54;100579.63;;;0.85;75.94
79037;BME280;68434;59.896;30.474;2023-04-01T04:21:24;100556.63;;;0.70;75.85
79037;BME280;68434;59.896;30.474;2023-04-01T04:23:58;100571.63;;;0.71;75.66
79037;BME280;68434;59.896;30.474;2023-04-01T04:26:48;100561.66;;;0.75;76.12
79037;BME280;68434;59.896;30.474;2023-04-01T04:29:18;100578.66;;;0.86;75.87
79037;BME280;68434;59.896;30.474;2023-04-01T04:31:48;100585.19;;;0.95;76.06
79037;BME280;68434;59.896;30.474;2023-04-01T04:34:16;100583.97;;;0.72;75.86
79037;BME280;68434;59.896;30.474;2023-04-01T04:36:44;100586.34;;;0.77;75.71
79037;BME280;68434;59.896;30.474;2023-04-01T04:39:13;100584.78;;;1.01;75.70
79037;BME280;68434;59.896;30.474;2023-04-01T04:41:42;100581.19;;;1.02;75.36
79037;BME280;68434;59.896;30.474;2023-04-01T04:44:10;100582.78;;;1.04;74.92
79037;BME280;68434;59.896;30.474;2023-04-01T04:46:37;100593.34;;;1.06;74.69
79037;BME280;68434;59.896;30.474;2023-04-01T04:49:13;100584.97;;;1.12;74.55
79037;BME280;68434;59.896;30.474;2023-04-01T04:51:41;100589.22;;;1.14;74.39
79037;BME280;68434;59.896;30.474;2023-04-01T04:54:09;100584.16;;;1.24;74.64
79037;BME280;68434;59.896;30.474;2023-04-01T04:56:56;100590.16;;;1.27;74.29
79037;BME280;68434;59.896;30.474;2023-04-01T04:59:26;100589.03;;;1.17;74.06
79037;BME280;68434;59.896;30.474;2023-04-01T05:02:02;100582.97;;;1.15;74.03
79037;BME280;68434;59.896;30.474;2023-04-01T05:04:34;100599.94;;;1.27;74.45
79037;BME280;68434;59.896;30.474;2023-04-01T05:07:01;100594.50;;;1.28;74.36
79037;BME280;68434;59.896;30.474;2023-04-01T05:09:30;100594.97;;;1.35;74.07
79037;BME280;68434;59.896;30.474;2023-04-01T05:11:58;100589.94;;;1.30;74.57
79037;BME280;68434;59.896;30.474;2023-04-01T05:14:32;100570.97;;;1.08;74.28
79037;BME280;68434;59.896;30.474;2023-04-01T05:17:09;100589.94;;;1.30;74.26
79037;BME280;68434;59.896;30.474;2023-04-01T05:19:39;100589.69;;;1.21;74.36
79037;BME280;68434;59.896;30.474;2023-04-01T05:22:07;100582.47;;;1.23;74.35
79037;BME280;68434;59.896;30.474;2023-04-01T05:24:35;100589.75;;;1.33;74.21
79037;BME280;68434;59.896;30.474;2023-04-01T05:27:03;100594.06;;;1.22;73.69
79037;BME280;68434;59.896;30.474;2023-04-01T05:29:31;100598.94;;;1.15;74.84
79037;BME280;68434;59.896;30.474;2023-04-01T05:32:04;100607.63;;;1.31;74.31
79037;BME280;68434;59.896;30.474;2023-04-01T05:34:32;100598.47;;;1.35;74.36
79037;BME280;68434;59.896;30.474;2023-04-01T05:37:01;100599.94;;;1.27;73.93
79037;BME280;68434;59.896;30.474;2023-04-01T05:39:29;100604.88;;;1.33;74.52
79037;BME280;68434;59.896;30.474;2023-04-01T05:41:56;100597.47;;;1.24;73.93
79037;BME280;68434;59.896;30.474;2023-04-01T05:44:24;100597.84;;;1.32;73.94
79037;BME280;68434;59.896;30.474;2023-04-01T05:47:14;100602.59;;;1.27;74.20
79037;BME280;68434;59.896;30.474;2023-04-01T05:49:42;100609.44;;;1.31;74.19
79037;BME280;68434;59.896;30.474;2023-04-01T05:52:11;100609.13;;;1.35;74.26
79037;BME280;68434;59.896;30.474;2023-04-01T05:54:38;100604.44;;;1.53;73.88
79037;BME280;68434;59.896;30.474;2023-04-01T05:57:06;100608.03;;;1.52;73.82
79037;BME280;68434;59.896;30.474;2023-04-01T05:59:34;100614.06;;;1.41;73.45
79037;BME280;68434;59.896;30.474;2023-04-01T06:02:02;100614.28;;;1.38;73.65
79037;BME280;68434;59.896;30.474;2023-04-01T06:04:34;100615.34;;;1.36;73.97
79037;BME280;68434;59.896;30.474;2023-04-01T06:07:12;100616.84;;;1.40;73.51
79037;BME280;68434;59.896;30.474;2023-04-01T06:09:41;100599.19;;;1.51;73.84
79037;BME280;68434;59.896;30.474;2023-04-01T06:12:36;100608.22;;;1.49;73.74
79037;BME280;68434;59.896;30.474;2023-04-01T06:15:18;100610.78;;;1.50;73.77
79037;BME280;68434;59.896;30.474;2023-04-01T06:17:56;100616.78;;;1.54;73.22
79037;BME280;68434;59.896;30.474;2023-04-01T06:20:37;100617.09;;;1.49;73.24
79037;BME280;68434;59.896;30.474;2023-04-01T06:23:22;100623.28;;;1.50;73.38
79037;BME280;68434;59.896;30.474;2023-04-01T06:26:05;100616.28;;;1.61;72.43
79037;BME280;68434;59.896;30.474;2023-04-01T06:29:02;100618.66;;;1.39;72.97
79037;BME280;68434;59.896;30.474;2023-04-01T06:31:43;100615.22;;;1.64;72.41
79037;BME280;68434;59.896;30.474;2023-04-01T06:34:25;100618.84;;;1.63;72.42
79037;BME280;68434;59.896;30.474;2023-04-01T06:37:11;100616.84;;;1.66;72.54
79037;BME280;68434;59.896;30.474;2023-04-01T06:40:01;100618.13;;;1.73;71.87
79037;BME280;68434;59.896;30.474;2023-04-01T06:42:54;100605.06;;;1.56;72.86
79037;BME280;68434;59.896;30.474;2023-04-01T06:45:52;100621.97;;;1.69;72.65
79037;BME280;68434;59.896;30.474;2023-04-01T06:48:50;100629.16;;;1.81;72.74
79037;BME280;68434;59.896;30.474;2023-04-01T06:51:44;100633.16;;;1.62;73.23
79037;BME280;68434;59.896;30.474;2023-04-01T06:54:36;100622.13;;;1.93;72.01
79037;BME280;68434;59.896;30.474;2023-04-01T06:57:31;100635.97;;;1.85;72.17
79037;BME280;68434;59.896;30.474;2023-04-01T07:00:05;100616.66;;;1.82;72.41
79037;BME280;68434;59.896;30.474;2023-04-01T07:02:43;100628.53;;;1.90;72.35
79037;BME280;68434;59.896;30.474;2023-04-01T07:05:13;100617.97;;;1.89;72.98
79037;BME280;68434;59.896;30.474;2023-04-01T07:07:44;100630.03;;;1.94;72.19
79037;BME280;68434;59.896;30.474;2023-04-01T07:10:17;100630.34;;;1.90;72.39
79037;BME280;68434;59.896;30.474;2023-04-01T07:13:12;100637.88;;;1.83;72.60
79037;BME280;68434;59.896;30.474;2023-04-01T07:16:09;100629.56;;;1.75;73.13
79037;BME280;68434;59.896;30.474;2023-04-01T07:18:44;100639.31;;;2.02;72.10
79037;BME280;68434;59.896;30.474;2023-04-01T07:21:22;100639.53;;;1.98;72.48
79037;BME280;68434;59.896;30.474;2023-04-01T07:23:54;100644.53;;;2.03;71.95
79037;BME280;68434;59.896;30.474;2023-04-01T07:26:47;100638.16;;;2.06;72.01
79037;BME280;68434;59.896;30.474;2023-04-01T07:29:21;100651.81;;;2.01;72.35
79037;BME280;68434;59.896;30.474;2023-04-01T07:32:21;100650.63;;;2.05;71.59
79037;BME280;68434;59.896;30.474;2023-04-01T07:35:11;100654.66;;;1.85;71.78
79037;BME280;68434;59.896;30.474;2023-04-01T07:37:47;100663.72;;;1.95;71.61
79037;BME280;68434;59.896;30.474;2023-04-01T07:40:26;100659.72;;;2.15;71.38
79037;BME280;68434;59.896;30.474;2023-04-01T07:43:10;100662.28;;;2.04;71.79
79037;BME280;68434;59.896;30.474;2023-04-01T07:45:56;100663.47;;;2.13;72.27
79037;BME280;68434;59.896;30.474;2023-04-01T07:48:33;100668.03;;;1.98;72.08
79037;BME280;68434;59.896;30.474;2023-04-01T07:51:09;100668.91;;;2.11;72.05
79037;BME280;68434;59.896;30.474;2023-04-01T07:53:46;100666.19;;;1.86;71.97
79037;BME280;68434;59.896;30.474;2023-04-01T07:56:20;100673.31;;;1.85;72.46
79037;BME280;68434;59.896;30.474;2023-04-01T07:58:58;100677.28;;;1.92;73.02
79037;BME280;68434;59.896;30.474;2023-04-01T08:02:08;100673.88;;;1.64;72.54
79037;BME280;68434;59.896;30.474;2023-04-01T08:04:49;100679.13;;;1.92;72.46
79037;BME280;68434;59.896;30.474;2023-04-01T08:07:26;100674.09;;;2.00;71.70
79037;BME280;68434;59.896;30.474;2023-04-01T08:10:20;100680.13;;;2.16;72.01
79037;BME280;68434;59.896;30.474;2023-04-01T08:13:17;100672.78;;;2.32;71.24
79037;BME280;68434;59.896;30.474;2023-04-01T08:16:13;100679.69;;;2.10;70.86
79037;BME280;68434;59.896;30.474;2023-04-01T08:18:56;100684.94;;;2.24;71.00
79037;BME280;68434;59.896;30.474;2023-04-01T08:21:31;100684.28;;;2.20;70.26
79037;BME280;68434;59.896;30.474;2023-04-01T08:24:13;100683.69;;;2.54;70.17
79037;BME280;68434;59.896;30.474;2023-04-01T08:26:49;100684.22;;;2.59;69.36
79037;BME280;68434;59.896;30.474;2023-04-01T08:29:32;100683.03;;;2.38;69.47
79037;BME280;68434;59.896;30.474;2023-04-01T08:32:03;100687.63;;;2.36;69.96
79037;BME280;68434;59.896;30.474;2023-04-01T08:34:39;100688.59;;;2.35;70.68
79037;BME280;68434;59.896;30.474;2023-04-01T08:37:21;100681.59;;;2.08;70.45
79037;BME280;68434;59.896;30.474;2023-04-01T08:39:56;100696.56;;;2.10;71.02
79037;BME280;68434;59.896;30.474;2023-04-01T08:42:46;100694.09;;;2.20;70.29
79037;BME280;68434;59.896;30.474;2023-04-01T08:45:26;100679.88;;;2.07;70.77
79037;BME280;68434;59.896;30.474;2023-04-01T08:48:22;100701.03;;;2.10;70.70
79037;BME280;68434;59.896;30.474;2023-04-01T08:51:18;100691.31;;;2.21;71.10
79037;BME280;68434;59.896;30.474;2023-04-01T08:54:17;100702.78;;;2.48;69.84
79037;BME280;68434;59.896;30.474;2023-04-01T08:56:57;100693.41;;;2.43;70.26
79037;BME280;68434;59.896;30.474;2023-04-01T08:59:50;100700.25;;;2.59;69.58
79037;BME280;68434;59.896;30.474;2023-04-01T09:06:33;100716.09;;;2.23;71.12
79037;BME280;68434;59.896;30.474;2023-04-01T09:09:09;100717.94;;;2.35;70.82
79037;BME280;68434;59.896;30.474;2023-04-01T09:12:03;100719.13;;;2.31;70.75
79037;BME280;68434;59.896;30.474;2023-04-01T09:15:07;100716.47;;;2.31;70.45
79037;BME280;68434;59.896;30.474;2023-04-01T09:17:56;100721.78;;;2.31;69.63
79037;BME280;68434;59.896;30.474;2023-04-01T09:20:44;100718.50;;;2.40;69.89
79037;BME280;68434;59.896;30.474;2023-04-01T09:23:35;100723.19;;;2.37;69.16
79037;BME280;68434;59.896;30.474;2023-04-01T09:26:24;100728.25;;;2.54;68.94
79037;BME280;68434;59.896;30.474;2023-04-01T09:29:05;100728.44;;;2.51;68.59
79037;BME280;68434;59.896;30.474;2023-04-01T09:35:04;100728.31;;;2.40;68.28
79037;BME280;68434;59.896;30.474;2023-04-01T09:37:39;100731.41;;;2.34;68.94
79037;BME280;68434;59.896;30.474;2023-04-01T09:40:30;100721.75;;;2.19;69.67
79037;BME280;68434;59.896;30.474;2023-04-01T09:43:25;100724.25;;;2.34;69.65
79037;BME280;68434;59.896;30.474;2023-04-01T09:46:18;100725.00;;;2.36;68.29
79037;BME280;68434;59.896;30.474;2023-04-01T09:49:30;100726.09;;;2.46;68.35
79037;BME280;68434;59.896;30.474;2023-04-01T09:52:14;100728.03;;;2.57;68.15
79037;BME280;68434;59.896;30.474;2023-04-01T09:54:59;100742.13;;;2.84;67.46
79037;BME280;68434;59.896;30.474;2023-04-01T09:58:00;100732.31;;;2.84;67.42
79037;BME280;68434;59.896;30.474;2023-04-01T10:04:15;100745.25;;;3.03;67.69
79037;BME280;68434;59.896;30.474;2023-04-01T10:07:18;100753.47;;;3.00;68.42
79037;BME280;68434;59.896;30.474;2023-04-01T10:10:41;100746.75;;;2.82;68.34
79037;BME280;68434;59.896;30.474;2023-04-01T10:13:48;100745.69;;;2.97;67.49
79037;BME280;68434;59.896;30.474;2023-04-01T10:20:17;100753.53;;;2.48;68.25
79037;BME280;68434;59.896;30.474;2023-04-01T10:23:02;100761.66;;;2.72;69.01
79037;BME280;68434;59.896;30.474;2023-04-01T10:26:05;100751.31;;;2.80;68.20
79037;BME280;68434;59.896;30.474;2023-04-01T10:29:06;100754.97;;;3.04;67.57
79037;BME280;68434;59.896;30.474;2023-04-01T10:31:50;100766.94;;;3.23;66.86
79037;BME280;68434;59.896;30.474;2023-04-01T10:44:34;100764.00;;;3.51;65.71
79037;BME280;68434;59.896;30.474;2023-04-01T10:47:50;100769.78;;;3.45;65.41
79037;BME280;68434;59.896;30.474;2023-04-01T10:51:00;100764.75;;;3.53;65.06
79037;BME280;68434;59.896;30.474;2023-04-01T10:53:42;100778.75;;;3.57;65.25
79037;BME280;68434;59.896;30.474;2023-04-01T10:56:34;100765.41;;;3.44;64.83
79037;BME280;68434;59.896;30.474;2023-04-01T11:06:47;100781.34;;;3.33;65.45
79037;BME280;68434;59.896;30.474;2023-04-01T11:09:48;100782.75;;;3.39;66.50
79037;BME280;68434;59.896;30.474;2023-04-01T11:15:41;100784.66;;;3.37;66.97
79037;BME280;68434;59.896;30.474;2023-04-01T11:21:52;100799.75;;;2.88;68.70
79037;BME280;68434;59.896;30.474;2023-04-01T11:31:35;100801.56;;;2.87;69.54
79037;BME280;68434;59.896;30.474;2023-04-01T11:34:16;100806.06;;;2.99;69.52
79037;BME280;68434;59.896;30.474;2023-04-01T11:36:55;100796.03;;;3.03;68.65
79037;BME280;68434;59.896;30.474;2023-04-01T11:39:33;100798.47;;;2.93;67.61
79037;BME280;68434;59.896;30.474;2023-04-01T11:42:16;100797.19;;;3.11;68.36
79037;BME280;68434;59.896;30.474;2023-04-01T11:45:15;100807.13;;;3.22;67.24
79037;BME280;68434;59.896;30.474;2023-04-01T11:48:00;100808.44;;;3.16;66.69
79037;BME280;68434;59.896;30.474;2023-04-01T11:50:39;100804.56;;;3.08;65.70
79037;BME280;68434;59.896;30.474;2023-04-01T11:53:33;100822.47;;;2.68;65.28
79037;BME280;68434;59.896;30.474;2023-04-01T11:56:12;100818.22;;;2.39;66.03
79037;BME280;68434;59.896;30.474;2023-04-01T11:59:05;100822.31;;;2.45;66.41
79037;BME280;68434;59.896;30.474;2023-04-01T12:01:44;100817.66;;;2.61;66.85
79037;BME280;68434;59.896;30.474;2023-04-01T12:04:38;100828.88;;;2.27;66.63
79037;BME280;68434;59.896;30.474;2023-04-01T12:07:18;100831.13;;;2.33;66.54
79037;BME280;68434;59.896;30.474;2023-04-01T12:09:58;100833.31;;;2.53;67.06
79037;BME280;68434;59.896;30.474;2023-04-01T12:12:35;100834.28;;;2.52;66.46
79037;BME280;68434;59.896;30.474;2023-04-01T12:15:17;100836.25;;;2.62;66.71
79037;BME280;68434;59.896;30.474;2023-04-01T12:17:51;100835.94;;;2.67;65.79
79037;BME280;68434;59.896;30.474;2023-04-01T12:20:36;100835.06;;;2.66;66.25
79037;BME280;68434;59.896;30.474;2023-04-01T12:23:17;100836.97;;;2.64;65.57
79037;BME280;68434;59.896;30.474;2023-04-01T12:26:04;100841.44;;;2.51;65.55
79037;BME280;68434;59.896;30.474;2023-04-01T12:28:43;100840.44;;;2.13;65.97
79037;BME280;68434;59.896;30.474;2023-04-01T12:31:27;100843.25;;;2.24;64.99
79037;BME280;68434;59.896;30.474;2023-04-01T12:34:34;100844.91;;;2.39;65.32
79037;BME280;68434;59.896;30.474;2023-04-01T12:37:12;100847.16;;;2.33;65.57
79037;BME280;68434;59.896;30.474;2023-04-01T12:40:02;100855.38;;;2.30;65.97
79037;BME280;68434;59.896;30.474;2023-04-01T12:42:54;100852.63;;;2.44;65.85
79037;BME280;68434;59.896;30.474;2023-04-01T12:45:29;100856.22;;;2.57;65.59
79037;BME280;68434;59.896;30.474;2023-04-01T12:56:43;100868.50;;;2.33;62.81
79037;BME280;68434;59.896;30.474;2023-04-01T12:59:38;100876.16;;;2.25;63.83
79037;BME280;68434;59.896;30.474;2023-04-01T13:02:13;100869.84;;;2.26;64.25
79037;BME280;68434;59.896;30.474;2023-04-01T13:05:19;100877.72;;;2.41;63.22
79037;BME280;68434;59.896;30.474;2023-04-01T13:07:56;100879.81;;;2.36;63.03
79037;BME280;68434;59.896;30.474;2023-04-01T13:10:38;100883.72;;;2.45;62.59
79037;BME280;68434;59.896;30.474;2023-04-01T13:13:31;100882.25;;;2.53;62.13
79037;BME280;68434;59.896;30.474;2023-04-01T13:16:08;100890.78;;;2.58;61.84
79037;BME280;68434;59.896;30.474;2023-04-01T13:18:50;100886.69;;;2.67;61.48
79037;BME280;68434;59.896;30.474;2023-04-01T13:21:28;100880.31;;;2.82;61.87
79037;BME280;68434;59.896;30.474;2023-04-01T13:24:03;100886.75;;;2.92;61.15
79037;BME280;68434;59.896;30.474;2023-04-01T13:26:37;100886.84;;;2.90;60.66
79037;BME280;68434;59.896;30.474;2023-04-01T13:29:12;100896.03;;;2.99;60.94
79037;BME280;68434;59.896;30.474;2023-04-01T13:32:02;100899.69;;;2.98;60.14
79037;BME280;68434;59.896;30.474;2023-04-01T13:34:48;100900.72;;;2.83;60.40
79037;BME280;68434;59.896;30.474;2023-04-01T13:37:31;100897.75;;;2.87;59.56
79037;BME280;68434;59.896;30.474;2023-04-01T13:40:19;100908.88;;;2.94;59.46
79037;BME280;68434;59.896;30.474;2023-04-01T13:42:54;100904.81;;;3.01;59.15
79037;BME280;68434;59.896;30.474;2023-04-01T13:45:26;100913.84;;;3.25;58.56
79037;BME280;68434;59.896;30.474;2023-04-01T13:48:34;100911.31;;;3.36;57.15
79037;BME280;68434;59.896;30.474;2023-04-01T13:51:21;100910.97;;;3.28;55.04
79037;BME280;68434;59.896;30.474;2023-04-01T13:54:07;100918.91;;;3.54;54.13
79037;BME280;68434;59.896;30.474;2023-04-01T13:56:42;100919.09;;;3.51;53.63
79037;BME280;68434;59.896;30.474;2023-04-01T13:59:40;100913.88;;;3.50;53.39
79037;BME280;68434;59.896;30.474;2023-04-01T14:02:26;100916.00;;;3.57;54.23
79037;BME280;68434;59.896;30.474;2023-04-01T14:05:13;100920.16;;;3.36;54.49
79037;BME280;68434;59.896;30.474;2023-04-01T14:07:55;100919.97;;;3.39;54.65
79037;BME280;68434;59.896;30.474;2023-04-01T14:10:34;100930.13;;;3.47;54.84
79037;BME280;68434;59.896;30.474;2023-04-01T14:13:09;100928.47;;;3.07;54.80
79037;BME280;68434;59.896;30.474;2023-04-01T14:16:04;100930.88;;;3.24;55.67
79037;BME280;68434;59.896;30.474;2023-04-01T14:19:10;100923.25;;;3.30;54.83
79037;BME280;68434;59.896;30.474;2023-04-01T14:21:42;100930.03;;;3.36;55.42
79037;BME280;68434;59.896;30.474;2023-04-01T14:24:52;100936.56;;;3.44;54.56
79037;BME280;68434;59.896;30.474;2023-04-01T14:27:39;100933.91;;;3.57;54.48
79037;BME280;68434;59.896;30.474;2023-04-01T14:33:25;100938.50;;;3.55;54.56
79037;BME280;68434;59.896;30.474;2023-04-01T14:36:11;100943.72;;;3.56;53.91
79037;BME280;68434;59.896;30.474;2023-04-01T14:38:55;100941.19;;;3.67;53.80
79037;BME280;68434;59.896;30.474;2023-04-01T14:41:39;100939.34;;;3.55;53.55
79037;BME280;68434;59.896;30.474;2023-04-01T14:44:30;100957.91;;;3.19;53.67
79037;BME280;68434;59.896;30.474;2023-04-01T14:47:28;100965.94;;;3.32;54.38
79037;BME280;68434;59.896;30.474;2023-04-01T14:50:08;100951.44;;;3.61;53.50